Wetterdaten: Woche 16.12.19 - 22.12.19 (KW51)
Datum Zeit Temp. Auen Feucht Auen Luftdruck Regen Richtung Windben
16.12.2019 00:00 -1,1 C 91 % 1016,4 hPa 0,0 mm W-SW 2,0 km/h (1 Bft)
16.12.2019 01:00 -1,4 C 91 % 1016,3 hPa 0,0 mm W-SW 1,2 km/h (1 Bft)
16.12.2019 02:00 -1,6 C 92 % 1016,4 hPa 0,0 mm W-SW 1,5 km/h (1 Bft)
16.12.2019 03:00 -1,6 C 92 % 1016,0 hPa 0,0 mm W-SW 2,3 km/h (1 Bft)
16.12.2019 04:00 -1,6 C 92 % 1015,7 hPa 0,0 mm W-SW 0,4 km/h (0 Bft)
16.12.2019 05:00 -1,7 C 92 % 1015,4 hPa 0,0 mm W-SW 1,5 km/h (1 Bft)
16.12.2019 06:00 -1,9 C 92 % 1015,0 hPa 0,0 mm W-SW 2,8 km/h (1 Bft)
16.12.2019 07:00 -1,7 C 93 % 1014,8 hPa 0,0 mm W-SW 3,5 km/h (1 Bft)
16.12.2019 08:00 -0,9 C 93 % 1014,8 hPa 0,0 mm W-SW 3,6 km/h (1 Bft)
16.12.2019 09:00 0,4 C 94 % 1014,7 hPa 0,0 mm W-SW 2,8 km/h (1 Bft)
16.12.2019 10:00 3,0 C 92 % 1014,4 hPa 0,0 mm W-SW 3,7 km/h (1 Bft)
16.12.2019 11:00 4,9 C 89 % 1013,9 hPa 0,0 mm W-SW 3,2 km/h (1 Bft)
16.12.2019 12:00 8,0 C 79 % 1013,1 hPa 0,0 mm W-SW 0,5 km/h (0 Bft)
16.12.2019 13:00 8,3 C 80 % 1012,4 hPa 0,0 mm W-SW 2,1 km/h (1 Bft)
16.12.2019 14:00 7,3 C 82 % 1012,2 hPa 0,0 mm W-SW 2,0 km/h (1 Bft)
16.12.2019 15:00 6,4 C 84 % 1012,2 hPa 0,0 mm W-SW 2,4 km/h (1 Bft)
16.12.2019 16:00 5,4 C 84 % 1012,3 hPa 0,0 mm W-SW 2,9 km/h (1 Bft)
16.12.2019 17:00 4,4 C 85 % 1012,4 hPa 0,0 mm W-SW 2,4 km/h (1 Bft)
16.12.2019 18:00 3,6 C 87 % 1012,6 hPa 0,0 mm W-SW 4,3 km/h (1 Bft)
16.12.2019 19:00 3,0 C 88 % 1012,8 hPa 0,0 mm W-SW 2,5 km/h (1 Bft)
16.12.2019 20:00 2,1 C 89 % 1012,7 hPa 0,0 mm W-SW 4,3 km/h (1 Bft)
16.12.2019 21:00 1,6 C 90 % 1012,3 hPa 0,0 mm W-SW 4,5 km/h (1 Bft)
16.12.2019 22:00 1,1 C 91 % 1011,8 hPa 0,0 mm W-SW 5,1 km/h (1 Bft)
16.12.2019 23:00 1,0 C 91 % 1011,4 hPa 0,0 mm W 5,9 km/h (2 Bft)
17.12.2019 00:00 0,9 C 92 % 1010,8 hPa 0,0 mm W 4,7 km/h (1 Bft)
17.12.2019 01:00 1,5 C 92 % 1010,4 hPa 0,0 mm W 7,1 km/h (2 Bft)
17.12.2019 02:00 2,5 C 93 % 1010,4 hPa 0,0 mm W 6,3 km/h (2 Bft)
17.12.2019 03:00 4,0 C 92 % 1010,2 hPa 0,0 mm W 9,6 km/h (2 Bft)
17.12.2019 04:00 5,4 C 89 % 1010,0 hPa 0,0 mm W 6,0 km/h (2 Bft)
17.12.2019 05:00 5,9 C 86 % 1009,9 hPa 0,0 mm W 7,4 km/h (2 Bft)
17.12.2019 06:00 5,9 C 84 % 1010,0 hPa 0,0 mm W-SW 5,6 km/h (1 Bft)
17.12.2019 07:00 5,4 C 86 % 1010,4 hPa 0,0 mm W 6,3 km/h (2 Bft)
17.12.2019 08:00 5,8 C 86 % 1010,9 hPa 0,0 mm W 7,9 km/h (2 Bft)
17.12.2019 09:00 6,6 C 83 % 1011,8 hPa 0,0 mm W 7,6 km/h (2 Bft)
17.12.2019 10:00 8,1 C 78 % 1012,2 hPa 0,0 mm W 6,3 km/h (2 Bft)
17.12.2019 11:00 10,7 C 65 % 1012,1 hPa 0,0 mm W 8,2 km/h (2 Bft)
17.12.2019 12:00 12,3 C 59 % 1012,2 hPa 0,0 mm S-SO 6,7 km/h (2 Bft)
17.12.2019 13:00 14,2 C 59 % 1012,1 hPa 0,0 mm W-SW 3,7 km/h (1 Bft)
17.12.2019 14:00 14,8 C 55 % 1012,0 hPa 0,0 mm S 5,9 km/h (2 Bft)
17.12.2019 15:00 12,9 C 59 % 1012,2 hPa 0,0 mm S-SO 6,1 km/h (2 Bft)
17.12.2019 16:00 11,4 C 63 % 1012,4 hPa 0,0 mm W 6,5 km/h (2 Bft)
17.12.2019 17:00 10,2 C 67 % 1012,9 hPa 0,0 mm W 5,6 km/h (1 Bft)
17.12.2019 18:00 8,9 C 72 % 1013,1 hPa 0,0 mm W 5,3 km/h (1 Bft)
17.12.2019 19:00 8,3 C 76 % 1013,2 hPa 0,0 mm W 7,4 km/h (2 Bft)
17.12.2019 20:00 11,0 C 66 % 1013,4 hPa 0,0 mm W-NW 8,6 km/h (2 Bft)
17.12.2019 21:00 11,0 C 66 % 1013,5 hPa 0,0 mm W 10,7 km/h (2 Bft)
17.12.2019 22:00 16,3 C 46 % 1013,3 hPa 0,0 mm S-SO 18,5 km/h (3 Bft)
17.12.2019 23:00 15,6 C 47 % 1013,7 hPa 0,0 mm SO 13,4 km/h (3 Bft)
18.12.2019 00:00 12,7 C 56 % 1013,6 hPa 0,0 mm W 5,7 km/h (1 Bft)
18.12.2019 01:00 8,4 C 70 % 1013,9 hPa 0,0 mm W 8,2 km/h (2 Bft)
18.12.2019 02:00 7,4 C 78 % 1014,5 hPa 0,0 mm W 7,0 km/h (2 Bft)
18.12.2019 03:00 7,8 C 79 % 1014,6 hPa 0,0 mm W 5,9 km/h (2 Bft)
18.12.2019 04:00 8,3 C 78 % 1015,0 hPa 0,0 mm W 6,6 km/h (2 Bft)
18.12.2019 05:00 8,2 C 79 % 1015,3 hPa 0,0 mm W 6,2 km/h (2 Bft)
18.12.2019 06:00 7,8 C 80 % 1016,1 hPa 0,0 mm W 6,0 km/h (2 Bft)
18.12.2019 07:00 8,9 C 78 % 1017,6 hPa 0,0 mm W 10,6 km/h (2 Bft)
18.12.2019 08:00 9,6 C 72 % 1018,7 hPa 0,0 mm W 3,2 km/h (1 Bft)
18.12.2019 09:00 10,7 C 75 % 1019,2 hPa 0,0 mm W 2,1 km/h (1 Bft)
18.12.2019 10:00 13,1 C 69 % 1019,4 hPa 0,0 mm W 1,1 km/h (0 Bft)
18.12.2019 11:00 13,1 C 66 % 1019,1 hPa 0,0 mm W 2,3 km/h (1 Bft)
18.12.2019 12:00 14,4 C 60 % 1018,9 hPa 0,0 mm W-SW 1,6 km/h (1 Bft)
18.12.2019 13:00 14,1 C 65 % 1019,1 hPa 0,0 mm O-SO 3,5 km/h (1 Bft)
18.12.2019 14:00 12,2 C 70 % 1019,2 hPa 0,0 mm O-SO 0,4 km/h (0 Bft)
18.12.2019 15:00 10,5 C 75 % 1019,5 hPa 0,0 mm W-NW 1,3 km/h (1 Bft)
18.12.2019 16:00 9,0 C 75 % 1019,9 hPa 0,0 mm W-NW 1,2 km/h (1 Bft)
18.12.2019 17:00 6,6 C 79 % 1020,5 hPa 0,0 mm W-NW 0,7 km/h (0 Bft)
18.12.2019 18:00 4,8 C 83 % 1021,0 hPa 0,0 mm W-NW 0,3 km/h (0 Bft)
18.12.2019 19:00 3,8 C 86 % 1021,6 hPa 0,0 mm W-NW 0,5 km/h (0 Bft)
18.12.2019 20:00 3,1 C 87 % 1021,7 hPa 0,0 mm W-NW 0,0 km/h (0 Bft)
18.12.2019 21:00 2,3 C 88 % 1021,5 hPa 0,0 mm W-NW 1,1 km/h (0 Bft)
18.12.2019 22:00 1,9 C 89 % 1021,2 hPa 0,0 mm W-NW 2,8 km/h (1 Bft)
18.12.2019 23:00 1,3 C 90 % 1021,2 hPa 0,0 mm W-NW 2,0 km/h (1 Bft)
19.12.2019 00:00 1,3 C 91 % 1021,2 hPa 0,0 mm W-NW 2,9 km/h (1 Bft)
19.12.2019 01:00 0,9 C 91 % 1020,5 hPa 0,0 mm W-NW 2,1 km/h (1 Bft)
19.12.2019 02:00 0,5 C 92 % 1020,2 hPa 0,0 mm W-NW 3,7 km/h (1 Bft)
19.12.2019 03:00 0,3 C 92 % 1019,5 hPa 0,0 mm W-NW 2,7 km/h (1 Bft)
19.12.2019 04:00 0,3 C 93 % 1019,1 hPa 0,0 mm W 4,5 km/h (1 Bft)
19.12.2019 05:00 0,3 C 93 % 1018,1 hPa 0,0 mm W 4,7 km/h (1 Bft)
19.12.2019 06:00 0,2 C 93 % 1018,6 hPa 0,0 mm W 3,7 km/h (1 Bft)
19.12.2019 07:00 0,8 C 93 % 1018,3 hPa 0,0 mm W 3,2 km/h (1 Bft)
19.12.2019 08:00 1,3 C 93 % 1017,9 hPa 0,0 mm W 5,5 km/h (1 Bft)
19.12.2019 09:00 2,5 C 94 % 1018,4 hPa 0,0 mm S 4,5 km/h (1 Bft)
19.12.2019 10:00 3,6 C 94 % 1018,5 hPa 0,0 mm S-SO 4,5 km/h (1 Bft)
19.12.2019 11:00 5,3 C 92 % 1017,8 hPa 0,0 mm O-SO 8,7 km/h (2 Bft)
19.12.2019 12:00 5,3 C 92 % 1016,7 hPa 0,0 mm O 12,0 km/h (2 Bft)
19.12.2019 13:00 5,7 C 91 % 1015,7 hPa 0,0 mm O 8,8 km/h (2 Bft)
19.12.2019 14:00 5,9 C 91 % 1015,1 hPa 0,0 mm O 8,7 km/h (2 Bft)
19.12.2019 15:00 5,8 C 90 % 1014,8 hPa 0,0 mm SO 1,9 km/h (1 Bft)
19.12.2019 16:00 4,9 C 90 % 1014,7 hPa 0,0 mm S 1,5 km/h (1 Bft)
19.12.2019 17:00 3,9 C 90 % 1014,7 hPa 0,0 mm W 5,3 km/h (1 Bft)
19.12.2019 18:00 4,0 C 91 % 1014,3 hPa 0,0 mm W 5,6 km/h (1 Bft)
19.12.2019 19:00 4,3 C 92 % 1014,1 hPa 0,0 mm W 5,6 km/h (1 Bft)
19.12.2019 20:00 4,1 C 92 % 1013,6 hPa 0,0 mm W 5,3 km/h (1 Bft)
19.12.2019 21:00 5,8 C 91 % 1012,6 hPa 0,0 mm W-SW 8,0 km/h (2 Bft)
19.12.2019 22:00 9,4 C 79 % 1011,2 hPa 0,0 mm O 10,3 km/h (2 Bft)
19.12.2019 23:00 10,7 C 70 % 1009,6 hPa 0,0 mm O 14,7 km/h (3 Bft)
20.12.2019 00:00 13,9 C 58 % 1008,5 hPa 0,0 mm O 23,5 km/h (4 Bft)
20.12.2019 01:00 13,2 C 59 % 1007,3 hPa 0,0 mm O 16,1 km/h (3 Bft)
20.12.2019 02:00 12,7 C 60 % 1006,6 hPa 0,0 mm W 10,5 km/h (2 Bft)
20.12.2019 03:00 9,8 C 67 % 1005,4 hPa 0,0 mm W 6,4 km/h (2 Bft)
20.12.2019 04:00 6,8 C 76 % 1004,8 hPa 0,0 mm W 7,5 km/h (2 Bft)
20.12.2019 05:00 5,1 C 81 % 1004,0 hPa 0,0 mm W 5,1 km/h (1 Bft)
20.12.2019 06:00 5,1 C 83 % 1002,7 hPa 0,0 mm S 8,0 km/h (2 Bft)
20.12.2019 07:00 6,1 C 79 % 1001,7 hPa 0,0 mm W 7,8 km/h (2 Bft)
20.12.2019 08:00 7,4 C 74 % 1000,6 hPa 0,0 mm W 9,4 km/h (2 Bft)
20.12.2019 09:00 14,2 C 51 % 999,6 hPa 0,0 mm O-NO 12,1 km/h (2 Bft)
20.12.2019 10:00 15,9 C 45 % 998,8 hPa 0,0 mm O-NO 18,5 km/h (3 Bft)
20.12.2019 11:00 16,7 C 43 % 997,6 hPa 0,0 mm NO 17,4 km/h (3 Bft)
20.12.2019 12:00 16,8 C 41 % 996,5 hPa 0,0 mm SO 10,9 km/h (2 Bft)
20.12.2019 13:00 15,5 C 48 % 995,8 hPa 0,0 mm W 6,4 km/h (2 Bft)
20.12.2019 14:00 14,3 C 56 % 994,5 hPa 0,0 mm S 3,9 km/h (1 Bft)
20.12.2019 15:00 13,9 C 54 % 993,7 hPa 0,0 mm S-SO 13,3 km/h (3 Bft)
20.12.2019 16:00 16,3 C 41 % 993,1 hPa 0,0 mm O-SO 20,1 km/h (4 Bft)
20.12.2019 17:00 15,4 C 44 % 992,5 hPa 0,0 mm O-SO 10,9 km/h (2 Bft)
20.12.2019 18:00 13,9 C 49 % 992,3 hPa 0,0 mm W-SW 7,4 km/h (2 Bft)
20.12.2019 19:00 14,7 C 45 % 992,7 hPa 0,0 mm S-SO 12,1 km/h (2 Bft)
20.12.2019 20:00 14,9 C 44 % 993,0 hPa 0,0 mm O 8,8 km/h (2 Bft)
20.12.2019 21:00 12,2 C 54 % 992,5 hPa 0,0 mm W 5,2 km/h (1 Bft)
20.12.2019 22:00 11,8 C 55 % 992,8 hPa 0,0 mm NW 7,2 km/h (2 Bft)
20.12.2019 23:00 11,4 C 62 % 994,6 hPa 0,0 mm W 21,6 km/h (4 Bft)
21.12.2019 00:00 10,0 C 73 % 996,1 hPa 0,0 mm W 14,0 km/h (3 Bft)
21.12.2019 01:00 9,5 C 78 % 997,7 hPa 0,4 mm W 17,0 km/h (3 Bft)
21.12.2019 02:00 7,9 C 85 % 998,6 hPa 0,4 mm W 9,5 km/h (2 Bft)
21.12.2019 03:00 7,2 C 88 % 999,3 hPa 0,2 mm W 5,3 km/h (1 Bft)
21.12.2019 04:00 6,4 C 89 % 998,7 hPa 0,2 mm W 1,1 km/h (0 Bft)
21.12.2019 05:00 5,8 C 90 % 998,0 hPa 0,0 mm W 0,3 km/h (0 Bft)
21.12.2019 06:00 5,6 C 91 % 997,1 hPa 0,0 mm W 0,5 km/h (0 Bft)
21.12.2019 07:00 5,3 C 91 % 996,1 hPa 0,0 mm W 1,1 km/h (0 Bft)
21.12.2019 08:00 4,8 C 92 % 995,4 hPa 0,0 mm W 0,0 km/h (0 Bft)
21.12.2019 09:00 4,9 C 92 % 995,3 hPa 0,0 mm W 0,4 km/h (0 Bft)
21.12.2019 10:00 5,5 C 93 % 995,2 hPa 1,0 mm SO 3,9 km/h (1 Bft)
21.12.2019 11:00 5,7 C 93 % 994,8 hPa 1,2 mm SO 0,8 km/h (0 Bft)
21.12.2019 12:00 5,9 C 93 % 994,1 hPa 1,8 mm W-NW 3,2 km/h (1 Bft)
21.12.2019 13:00 6,1 C 93 % 993,3 hPa 1,6 mm W 6,3 km/h (2 Bft)
21.12.2019 14:00 5,8 C 94 % 994,1 hPa 3,2 mm W 8,7 km/h (2 Bft)
21.12.2019 15:00 5,0 C 93 % 995,2 hPa 2,4 mm W 14,4 km/h (3 Bft)
21.12.2019 16:00 4,1 C 94 % 995,5 hPa 1,0 mm W 12,6 km/h (3 Bft)
21.12.2019 17:00 3,6 C 94 % 995,4 hPa 0,2 mm W 5,9 km/h (2 Bft)
21.12.2019 18:00 3,6 C 94 % 995,1 hPa 0,0 mm W 0,7 km/h (0 Bft)
21.12.2019 19:00 3,5 C 94 % 995,1 hPa 0,0 mm W 0,7 km/h (0 Bft)
21.12.2019 20:00 3,3 C 94 % 994,8 hPa 0,0 mm W 0,0 km/h (0 Bft)
21.12.2019 21:00 2,5 C 94 % 994,0 hPa 0,0 mm W 0,0 km/h (0 Bft)
21.12.2019 22:00 1,5 C 94 % 993,0 hPa 0,0 mm W 0,3 km/h (0 Bft)
21.12.2019 23:00 0,7 C 94 % 992,3 hPa 0,0 mm W 1,2 km/h (1 Bft)
22.12.2019 00:00 -0,1 C 94 % 991,9 hPa 0,0 mm W 1,3 km/h (1 Bft)
22.12.2019 01:00 -0,2 C 94 % 991,7 hPa 0,0 mm W 2,4 km/h (1 Bft)
22.12.2019 02:00 -0,2 C 94 % 991,4 hPa 0,0 mm W 1,3 km/h (1 Bft)
22.12.2019 03:00 0,2 C 94 % 990,5 hPa 0,0 mm W 1,6 km/h (1 Bft)
22.12.2019 04:00 0,4 C 94 % 990,3 hPa 0,0 mm W 1,6 km/h (1 Bft)
22.12.2019 05:00 0,2 C 94 % 990,2 hPa 0,0 mm W 2,8 km/h (1 Bft)
22.12.2019 06:00 0,5 C 94 % 990,9 hPa 0,0 mm W 4,5 km/h (1 Bft)
22.12.2019 07:00 0,9 C 94 % 991,6 hPa 0,0 mm W 5,1 km/h (1 Bft)
22.12.2019 08:00 1,2 C 94 % 992,2 hPa 0,0 mm W 1,1 km/h (0 Bft)
22.12.2019 09:00 1,4 C 95 % 992,6 hPa 0,0 mm W 1,2 km/h (1 Bft)
22.12.2019 10:00 1,9 C 95 % 993,3 hPa 0,0 mm W 0,4 km/h (0 Bft)
22.12.2019 11:00 2,8 C 95 % 993,1 hPa 0,0 mm W 3,2 km/h (1 Bft)
22.12.2019 12:00 3,8 C 95 % 992,4 hPa 0,0 mm W 2,9 km/h (1 Bft)
22.12.2019 13:00 4,1 C 95 % 992,3 hPa 0,0 mm SO 4,0 km/h (1 Bft)
22.12.2019 14:00 4,7 C 95 % 992,5 hPa 0,0 mm SO 0,4 km/h (0 Bft)
22.12.2019 15:00 4,9 C 95 % 993,2 hPa 0,0 mm SO 0,0 km/h (0 Bft)
22.12.2019 16:00 4,7 C 95 % 993,9 hPa 0,2 mm W 3,3 km/h (1 Bft)
22.12.2019 17:00 4,4 C 94 % 994,4 hPa 0,4 mm W 0,4 km/h (0 Bft)
22.12.2019 18:00 4,5 C 94 % 995,1 hPa 1,2 mm W 3,9 km/h (1 Bft)
22.12.2019 19:00 5,2 C 95 % 995,6 hPa 1,2 mm W 21,2 km/h (4 Bft)
22.12.2019 20:00 5,3 C 94 % 996,2 hPa 1,0 mm W 25,5 km/h (4 Bft)
22.12.2019 21:00 5,3 C 94 % 996,9 hPa 0,0 mm W 19,4 km/h (3 Bft)
22.12.2019 22:00 5,4 C 94 % 997,3 hPa 0,0 mm W 21,8 km/h (4 Bft)
22.12.2019 23:00 5,6 C 92 % 997,9 hPa 0,2 mm W 22,8 km/h (4 Bft)
Min-Datum _ 16.12.19 20.12.19 22.12.19 - - 16.12.19
_ Min-Zeit 06:10 12:20 03:40 - - 00:35
Minimum _ -1,9 C 39 % 990,0 hPa - - 0,0 km/h (0 Bft)
Max-Datum _ 20.12.19 22.12.19 18.12.19 21.12.19 - 22.12.19
_ Max-Zeit 12:20 06:35 20:00 14:15 - 20:05
Maximum _ 17,7 C 95 % 1021,8 hPa 3,2 mm - 37,0 km/h
W (5 Bft)
Durchschnitt _ 6,1 C 82 % 1006,8 hPa #17,8 mm W 5,9 km/h (2 Bft)